sensor_id;sensor_type;location;lat;lon;timestamp;P1;durP1;ratioP1;P2;durP2;ratioP2
21987;SDS011;11158;53.404;-1.510;2023-04-25T00:00:16;5.03;;;2.08;;
21987;SDS011;11158;53.404;-1.510;2023-04-25T00:03:04;7.78;;;2.95;;
21987;SDS011;11158;53.404;-1.510;2023-04-25T00:05:50;4.70;;;2.25;;
21987;SDS011;11158;53.404;-1.510;2023-04-25T00:08:35;8.30;;;2.58;;
21987;SDS011;11158;53.404;-1.510;2023-04-25T00:11:19;8.60;;;3.35;;
21987;SDS011;11158;53.404;-1.510;2023-04-25T00:14:04;6.28;;;1.95;;
21987;SDS011;11158;53.404;-1.510;2023-04-25T00:16:49;5.97;;;1.98;;
21987;SDS011;11158;53.404;-1.510;2023-04-25T00:19:35;6.40;;;2.08;;
21987;SDS011;11158;53.404;-1.510;2023-04-25T00:22:19;7.10;;;2.08;;
21987;SDS011;11158;53.404;-1.510;2023-04-25T00:25:04;9.43;;;2.63;;
21987;SDS011;11158;53.404;-1.510;2023-04-25T00:27:49;8.02;;;1.98;;
21987;SDS011;11158;53.404;-1.510;2023-04-25T00:30:33;10.20;;;2.45;;
21987;SDS011;11158;53.404;-1.510;2023-04-25T00:33:17;7.53;;;2.17;;
21987;SDS011;11158;53.404;-1.510;2023-04-25T00:36:01;10.43;;;2.40;;
21987;SDS011;11158;53.404;-1.510;2023-04-25T00:38:46;8.80;;;2.85;;
21987;SDS011;11158;53.404;-1.510;2023-04-25T00:41:31;4.35;;;2.03;;
21987;SDS011;11158;53.404;-1.510;2023-04-25T00:44:16;6.30;;;2.20;;
21987;SDS011;11158;53.404;-1.510;2023-04-25T00:47:01;5.15;;;2.20;;
21987;SDS011;11158;53.404;-1.510;2023-04-25T00:49:47;6.65;;;1.73;;
21987;SDS011;11158;53.404;-1.510;2023-04-25T00:52:31;8.23;;;2.72;;
21987;SDS011;11158;53.404;-1.510;2023-04-25T00:55:16;7.15;;;2.20;;
21987;SDS011;11158;53.404;-1.510;2023-04-25T00:58:00;9.82;;;2.45;;
21987;SDS011;11158;53.404;-1.510;2023-04-25T01:00:45;5.57;;;1.63;;
21987;SDS011;11158;53.404;-1.510;2023-04-25T01:03:31;9.30;;;1.90;;
21987;SDS011;11158;53.404;-1.510;2023-04-25T01:06:16;7.22;;;2.08;;
21987;SDS011;11158;53.404;-1.510;2023-04-25T01:09:01;7.38;;;1.92;;
21987;SDS011;11158;53.404;-1.510;2023-04-25T01:11:46;6.53;;;1.85;;
21987;SDS011;11158;53.404;-1.510;2023-04-25T01:14:30;4.13;;;1.40;;
21987;SDS011;11158;53.404;-1.510;2023-04-25T01:17:15;5.13;;;1.80;;
21987;SDS011;11158;53.404;-1.510;2023-04-25T01:20:01;5.55;;;1.48;;
21987;SDS011;11158;53.404;-1.510;2023-04-25T01:22:48;5.15;;;1.38;;
21987;SDS011;11158;53.404;-1.510;2023-04-25T01:25:33;7.65;;;2.00;;
21987;SDS011;11158;53.404;-1.510;2023-04-25T01:28:17;6.97;;;2.08;;
21987;SDS011;11158;53.404;-1.510;2023-04-25T01:31:02;5.00;;;1.80;;
21987;SDS011;11158;53.404;-1.510;2023-04-25T01:33:47;7.95;;;2.03;;
21987;SDS011;11158;53.404;-1.510;2023-04-25T01:36:31;5.95;;;1.58;;
21987;SDS011;11158;53.404;-1.510;2023-04-25T01:39:16;7.97;;;1.80;;
21987;SDS011;11158;53.404;-1.510;2023-04-25T01:42:01;6.82;;;2.20;;
21987;SDS011;11158;53.404;-1.510;2023-04-25T01:44:46;9.10;;;2.20;;
21987;SDS011;11158;53.404;-1.510;2023-04-25T01:47:30;7.50;;;2.47;;
21987;SDS011;11158;53.404;-1.510;2023-04-25T01:50:14;6.63;;;2.25;;
21987;SDS011;11158;53.404;-1.510;2023-04-25T01:53:00;9.55;;;2.45;;
21987;SDS011;11158;53.404;-1.510;2023-04-25T01:55:45;5.82;;;1.90;;
21987;SDS011;11158;53.404;-1.510;2023-04-25T01:58:29;7.70;;;1.88;;
21987;SDS011;11158;53.404;-1.510;2023-04-25T02:01:13;8.32;;;2.13;;
21987;SDS011;11158;53.404;-1.510;2023-04-25T02:03:58;7.05;;;2.20;;
21987;SDS011;11158;53.404;-1.510;2023-04-25T02:06:42;7.07;;;2.30;;
21987;SDS011;11158;53.404;-1.510;2023-04-25T02:09:26;7.30;;;2.15;;
21987;SDS011;11158;53.404;-1.510;2023-04-25T02:12:10;4.80;;;2.20;;
21987;SDS011;11158;53.404;-1.510;2023-04-25T02:14:54;7.88;;;2.42;;
21987;SDS011;11158;53.404;-1.510;2023-04-25T02:17:38;3.75;;;2.10;;
21987;SDS011;11158;53.404;-1.510;2023-04-25T02:20:23;9.30;;;2.03;;
21987;SDS011;11158;53.404;-1.510;2023-04-25T02:23:08;3.85;;;2.03;;
21987;SDS011;11158;53.404;-1.510;2023-04-25T02:25:52;8.60;;;2.22;;
21987;SDS011;11158;53.404;-1.510;2023-04-25T02:28:39;7.40;;;1.73;;
21987;SDS011;11158;53.404;-1.510;2023-04-25T02:31:23;6.97;;;1.88;;
21987;SDS011;11158;53.404;-1.510;2023-04-25T02:34:07;4.63;;;1.60;;
21987;SDS011;11158;53.404;-1.510;2023-04-25T02:36:51;9.00;;;2.65;;
21987;SDS011;11158;53.404;-1.510;2023-04-25T02:39:35;5.10;;;1.85;;
21987;SDS011;11158;53.404;-1.510;2023-04-25T02:42:19;5.95;;;2.08;;
21987;SDS011;11158;53.404;-1.510;2023-04-25T02:45:03;5.18;;;2.00;;
21987;SDS011;11158;53.404;-1.510;2023-04-25T02:47:48;7.90;;;2.15;;
21987;SDS011;11158;53.404;-1.510;2023-04-25T02:50:32;8.43;;;2.13;;
21987;SDS011;11158;53.404;-1.510;2023-04-25T02:53:16;5.93;;;1.83;;
21987;SDS011;11158;53.404;-1.510;2023-04-25T02:56:00;5.82;;;1.90;;
21987;SDS011;11158;53.404;-1.510;2023-04-25T02:58:45;5.05;;;1.88;;
21987;SDS011;11158;53.404;-1.510;2023-04-25T03:01:29;7.45;;;2.13;;
21987;SDS011;11158;53.404;-1.510;2023-04-25T03:04:13;9.65;;;2.42;;
21987;SDS011;11158;53.404;-1.510;2023-04-25T03:06:57;3.10;;;1.63;;
21987;SDS011;11158;53.404;-1.510;2023-04-25T03:09:41;6.22;;;1.90;;
21987;SDS011;11158;53.404;-1.510;2023-04-25T03:12:26;8.98;;;2.92;;
21987;SDS011;11158;53.404;-1.510;2023-04-25T03:15:10;6.13;;;2.45;;
21987;SDS011;11158;53.404;-1.510;2023-04-25T03:17:54;6.95;;;1.67;;
21987;SDS011;11158;53.404;-1.510;2023-04-25T03:20:38;3.03;;;1.70;;
21987;SDS011;11158;53.404;-1.510;2023-04-25T03:23:23;4.50;;;1.67;;
21987;SDS011;11158;53.404;-1.510;2023-04-25T03:26:07;6.72;;;1.73;;
21987;SDS011;11158;53.404;-1.510;2023-04-25T03:28:51;5.88;;;1.90;;
21987;SDS011;11158;53.404;-1.510;2023-04-25T03:31:35;6.00;;;1.55;;
21987;SDS011;11158;53.404;-1.510;2023-04-25T03:34:20;7.45;;;1.58;;
21987;SDS011;11158;53.404;-1.510;2023-04-25T03:37:06;8.73;;;1.98;;
21987;SDS011;11158;53.404;-1.510;2023-04-25T03:39:50;6.30;;;2.08;;
21987;SDS011;11158;53.404;-1.510;2023-04-25T03:42:34;5.68;;;2.08;;
21987;SDS011;11158;53.404;-1.510;2023-04-25T03:45:18;6.13;;;1.90;;
21987;SDS011;11158;53.404;-1.510;2023-04-25T03:48:02;9.63;;;2.28;;
21987;SDS011;11158;53.404;-1.510;2023-04-25T03:50:47;9.70;;;1.92;;
21987;SDS011;11158;53.404;-1.510;2023-04-25T03:53:31;6.85;;;1.55;;
21987;SDS011;11158;53.404;-1.510;2023-04-25T03:56:15;7.13;;;2.13;;
21987;SDS011;11158;53.404;-1.510;2023-04-25T03:58:59;4.20;;;1.63;;
21987;SDS011;11158;53.404;-1.510;2023-04-25T04:01:43;7.55;;;1.77;;
21987;SDS011;11158;53.404;-1.510;2023-04-25T04:04:27;7.05;;;2.15;;
21987;SDS011;11158;53.404;-1.510;2023-04-25T04:07:12;7.78;;;1.95;;
21987;SDS011;11158;53.404;-1.510;2023-04-25T04:09:56;7.05;;;1.75;;
21987;SDS011;11158;53.404;-1.510;2023-04-25T04:12:39;7.50;;;2.10;;
21987;SDS011;11158;53.404;-1.510;2023-04-25T04:15:23;6.57;;;1.77;;
21987;SDS011;11158;53.404;-1.510;2023-04-25T04:18:08;4.72;;;2.13;;
21987;SDS011;11158;53.404;-1.510;2023-04-25T04:20:52;8.65;;;1.63;;
21987;SDS011;11158;53.404;-1.510;2023-04-25T04:23:36;7.13;;;1.77;;
21987;SDS011;11158;53.404;-1.510;2023-04-25T04:26:21;8.20;;;2.20;;
21987;SDS011;11158;53.404;-1.510;2023-04-25T04:29:08;6.75;;;1.90;;
21987;SDS011;11158;53.404;-1.510;2023-04-25T04:31:52;10.43;;;2.65;;
21987;SDS011;11158;53.404;-1.510;2023-04-25T04:34:36;2.88;;;1.70;;
21987;SDS011;11158;53.404;-1.510;2023-04-25T04:37:21;5.28;;;1.75;;
21987;SDS011;11158;53.404;-1.510;2023-04-25T04:40:06;7.32;;;2.10;;
21987;SDS011;11158;53.404;-1.510;2023-04-25T04:42:51;4.03;;;1.60;;
21987;SDS011;11158;53.404;-1.510;2023-04-25T04:45:36;5.40;;;1.77;;
21987;SDS011;11158;53.404;-1.510;2023-04-25T04:48:24;7.57;;;1.90;;
21987;SDS011;11158;53.404;-1.510;2023-04-25T04:51:08;7.53;;;1.50;;
21987;SDS011;11158;53.404;-1.510;2023-04-25T04:53:52;4.65;;;1.63;;
21987;SDS011;11158;53.404;-1.510;2023-04-25T04:56:36;4.57;;;1.50;;
21987;SDS011;11158;53.404;-1.510;2023-04-25T04:59:20;7.38;;;1.90;;
21987;SDS011;11158;53.404;-1.510;2023-04-25T05:02:05;5.82;;;1.50;;
21987;SDS011;11158;53.404;-1.510;2023-04-25T05:04:49;7.88;;;1.63;;
21987;SDS011;11158;53.404;-1.510;2023-04-25T05:07:34;8.05;;;1.98;;
21987;SDS011;11158;53.404;-1.510;2023-04-25T05:10:18;5.57;;;1.55;;
21987;SDS011;11158;53.404;-1.510;2023-04-25T05:13:02;5.90;;;1.50;;
21987;SDS011;11158;53.404;-1.510;2023-04-25T05:15:46;5.43;;;1.48;;
21987;SDS011;11158;53.404;-1.510;2023-04-25T05:18:31;6.00;;;1.60;;
21987;SDS011;11158;53.404;-1.510;2023-04-25T05:21:14;3.00;;;1.83;;
21987;SDS011;11158;53.404;-1.510;2023-04-25T05:23:59;6.97;;;1.30;;
21987;SDS011;11158;53.404;-1.510;2023-04-25T05:26:43;10.02;;;1.83;;
21987;SDS011;11158;53.404;-1.510;2023-04-25T05:29:27;5.55;;;1.45;;
21987;SDS011;11158;53.404;-1.510;2023-04-25T05:32:11;6.50;;;1.63;;
21987;SDS011;11158;53.404;-1.510;2023-04-25T05:34:55;5.30;;;1.25;;
21987;SDS011;11158;53.404;-1.510;2023-04-25T05:37:39;4.47;;;1.13;;
21987;SDS011;11158;53.404;-1.510;2023-04-25T05:40:23;2.58;;;1.27;;
21987;SDS011;11158;53.404;-1.510;2023-04-25T05:43:07;3.35;;;1.35;;
21987;SDS011;11158;53.404;-1.510;2023-04-25T05:45:51;3.28;;;1.55;;
21987;SDS011;11158;53.404;-1.510;2023-04-25T05:48:35;3.58;;;1.30;;
21987;SDS011;11158;53.404;-1.510;2023-04-25T05:51:19;5.03;;;1.40;;
21987;SDS011;11158;53.404;-1.510;2023-04-25T05:54:03;3.38;;;1.20;;
21987;SDS011;11158;53.404;-1.510;2023-04-25T05:56:47;2.42;;;0.93;;
21987;SDS011;11158;53.404;-1.510;2023-04-25T05:59:31;3.42;;;1.02;;
21987;SDS011;11158;53.404;-1.510;2023-04-25T06:02:15;4.25;;;1.02;;
21987;SDS011;11158;53.404;-1.510;2023-04-25T06:04:59;3.33;;;1.00;;
21987;SDS011;11158;53.404;-1.510;2023-04-25T06:07:43;2.03;;;0.93;;
21987;SDS011;11158;53.404;-1.510;2023-04-25T06:10:28;4.05;;;1.20;;
21987;SDS011;11158;53.404;-1.510;2023-04-25T06:13:12;3.85;;;1.20;;
21987;SDS011;11158;53.404;-1.510;2023-04-25T06:15:56;4.90;;;1.13;;
21987;SDS011;11158;53.404;-1.510;2023-04-25T06:18:40;4.55;;;0.95;;
21987;SDS011;11158;53.404;-1.510;2023-04-25T06:21:25;5.10;;;1.27;;
21987;SDS011;11158;53.404;-1.510;2023-04-25T06:24:11;2.13;;;1.08;;
21987;SDS011;11158;53.404;-1.510;2023-04-25T06:26:55;7.05;;;1.27;;
21987;SDS011;11158;53.404;-1.510;2023-04-25T06:29:39;5.85;;;1.40;;
21987;SDS011;11158;53.404;-1.510;2023-04-25T06:32:23;2.85;;;1.10;;
21987;SDS011;11158;53.404;-1.510;2023-04-25T06:35:07;2.17;;;1.20;;
21987;SDS011;11158;53.404;-1.510;2023-04-25T06:37:52;4.07;;;1.05;;
21987;SDS011;11158;53.404;-1.510;2023-04-25T06:40:36;4.22;;;1.30;;
21987;SDS011;11158;53.404;-1.510;2023-04-25T06:43:23;3.50;;;1.20;;
21987;SDS011;11158;53.404;-1.510;2023-04-25T06:46:07;3.67;;;1.42;;
21987;SDS011;11158;53.404;-1.510;2023-04-25T06:48:51;2.03;;;1.10;;
21987;SDS011;11158;53.404;-1.510;2023-04-25T06:51:35;2.65;;;1.08;;
21987;SDS011;11158;53.404;-1.510;2023-04-25T06:54:19;5.82;;;1.42;;
21987;SDS011;11158;53.404;-1.510;2023-04-25T06:57:04;4.78;;;1.23;;
21987;SDS011;11158;53.404;-1.510;2023-04-25T06:59:49;3.50;;;1.20;;
21987;SDS011;11158;53.404;-1.510;2023-04-25T07:02:33;2.90;;;1.10;;
21987;SDS011;11158;53.404;-1.510;2023-04-25T07:05:17;4.15;;;1.30;;
21987;SDS011;11158;53.404;-1.510;2023-04-25T07:08:01;6.20;;;1.65;;
21987;SDS011;11158;53.404;-1.510;2023-04-25T07:10:47;3.80;;;1.05;;
21987;SDS011;11158;53.404;-1.510;2023-04-25T07:13:31;4.57;;;1.27;;
21987;SDS011;11158;53.404;-1.510;2023-04-25T07:16:15;3.88;;;1.23;;
21987;SDS011;11158;53.404;-1.510;2023-04-25T07:19:00;2.95;;;0.95;;
21987;SDS011;11158;53.404;-1.510;2023-04-25T07:21:44;3.50;;;1.20;;
21987;SDS011;11158;53.404;-1.510;2023-04-25T07:24:28;5.95;;;1.25;;
21987;SDS011;11158;53.404;-1.510;2023-04-25T07:27:12;2.47;;;1.27;;
21987;SDS011;11158;53.404;-1.510;2023-04-25T07:29:56;2.78;;;1.00;;
21987;SDS011;11158;53.404;-1.510;2023-04-25T07:32:41;3.53;;;1.17;;
21987;SDS011;11158;53.404;-1.510;2023-04-25T07:35:25;4.63;;;1.40;;
21987;SDS011;11158;53.404;-1.510;2023-04-25T07:38:09;4.28;;;1.42;;
21987;SDS011;11158;53.404;-1.510;2023-04-25T07:40:54;5.85;;;1.75;;
21987;SDS011;11158;53.404;-1.510;2023-04-25T07:43:38;8.05;;;1.70;;
21987;SDS011;11158;53.404;-1.510;2023-04-25T07:46:22;4.68;;;1.50;;
21987;SDS011;11158;53.404;-1.510;2023-04-25T07:49:07;1.38;;;0.90;;
21987;SDS011;11158;53.404;-1.510;2023-04-25T07:51:51;5.60;;;1.27;;
21987;SDS011;11158;53.404;-1.510;2023-04-25T07:54:35;3.25;;;1.38;;
21987;SDS011;11158;53.404;-1.510;2023-04-25T07:57:20;4.07;;;1.58;;
21987;SDS011;11158;53.404;-1.510;2023-04-25T08:00:04;4.70;;;1.63;;
21987;SDS011;11158;53.404;-1.510;2023-04-25T08:02:53;4.82;;;1.20;;
21987;SDS011;11158;53.404;-1.510;2023-04-25T08:05:37;4.38;;;1.30;;
21987;SDS011;11158;53.404;-1.510;2023-04-25T08:08:21;7.55;;;1.50;;
21987;SDS011;11158;53.404;-1.510;2023-04-25T08:11:05;1.65;;;1.10;;
21987;SDS011;11158;53.404;-1.510;2023-04-25T08:13:49;3.85;;;1.40;;
21987;SDS011;11158;53.404;-1.510;2023-04-25T08:16:34;8.15;;;1.70;;
21987;SDS011;11158;53.404;-1.510;2023-04-25T08:19:18;5.55;;;1.65;;
21987;SDS011;11158;53.404;-1.510;2023-04-25T08:22:02;3.40;;;1.27;;
21987;SDS011;11158;53.404;-1.510;2023-04-25T08:24:46;3.75;;;1.20;;
21987;SDS011;11158;53.404;-1.510;2023-04-25T08:27:31;3.22;;;1.40;;
21987;SDS011;11158;53.404;-1.510;2023-04-25T08:30:15;6.25;;;2.00;;
21987;SDS011;11158;53.404;-1.510;2023-04-25T08:32:59;4.97;;;1.50;;
21987;SDS011;11158;53.404;-1.510;2023-04-25T08:35:43;6.35;;;1.58;;
21987;SDS011;11158;53.404;-1.510;2023-04-25T08:38:28;4.38;;;1.50;;
21987;SDS011;11158;53.404;-1.510;2023-04-25T08:41:12;3.05;;;1.38;;
21987;SDS011;11158;53.404;-1.510;2023-04-25T08:43:57;4.32;;;1.65;;
21987;SDS011;11158;53.404;-1.510;2023-04-25T08:46:44;5.20;;;1.60;;
21987;SDS011;11158;53.404;-1.510;2023-04-25T08:49:33;3.38;;;1.25;;
21987;SDS011;11158;53.404;-1.510;2023-04-25T08:52:20;3.58;;;1.38;;
21987;SDS011;11158;53.404;-1.510;2023-04-25T08:55:06;4.55;;;1.40;;
21987;SDS011;11158;53.404;-1.510;2023-04-25T08:57:53;4.68;;;1.33;;
21987;SDS011;11158;53.404;-1.510;2023-04-25T09:00:38;6.38;;;1.45;;
21987;SDS011;11158;53.404;-1.510;2023-04-25T09:03:23;4.82;;;1.30;;
21987;SDS011;11158;53.404;-1.510;2023-04-25T09:06:09;4.93;;;1.30;;
21987;SDS011;11158;53.404;-1.510;2023-04-25T09:08:54;6.28;;;1.40;;
21987;SDS011;11158;53.404;-1.510;2023-04-25T09:11:46;3.85;;;1.50;;
21987;SDS011;11158;53.404;-1.510;2023-04-25T09:14:30;4.10;;;1.38;;
21987;SDS011;11158;53.404;-1.510;2023-04-25T09:17:14;2.60;;;1.15;;
21987;SDS011;11158;53.404;-1.510;2023-04-25T09:20:05;5.97;;;1.40;;
21987;SDS011;11158;53.404;-1.510;2023-04-25T09:23:04;3.80;;;1.38;;
21987;SDS011;11158;53.404;-1.510;2023-04-25T09:25:49;2.85;;;1.92;;
21987;SDS011;11158;53.404;-1.510;2023-04-25T09:28:35;3.47;;;1.70;;
21987;SDS011;11158;53.404;-1.510;2023-04-25T09:31:24;5.18;;;1.52;;
21987;SDS011;11158;53.404;-1.510;2023-04-25T09:34:09;3.13;;;1.52;;
21987;SDS011;11158;53.404;-1.510;2023-04-25T09:37:01;7.70;;;2.03;;
21987;SDS011;11158;53.404;-1.510;2023-04-25T09:39:46;2.40;;;1.30;;
21987;SDS011;11158;53.404;-1.510;2023-04-25T09:42:32;4.10;;;1.30;;
21987;SDS011;11158;53.404;-1.510;2023-04-25T09:45:17;4.85;;;1.30;;
21987;SDS011;11158;53.404;-1.510;2023-04-25T09:48:05;3.20;;;1.30;;
21987;SDS011;11158;53.404;-1.510;2023-04-25T09:51:12;2.00;;;1.33;;
21987;SDS011;11158;53.404;-1.510;2023-04-25T09:53:57;4.60;;;1.65;;
21987;SDS011;11158;53.404;-1.510;2023-04-25T09:56:41;2.72;;;1.08;;
21987;SDS011;11158;53.404;-1.510;2023-04-25T09:59:25;7.72;;;1.75;;
21987;SDS011;11158;53.404;-1.510;2023-04-25T10:02:12;5.05;;;1.85;;
21987;SDS011;11158;53.404;-1.510;2023-04-25T10:04:57;4.95;;;1.58;;
21987;SDS011;11158;53.404;-1.510;2023-04-25T10:07:45;2.30;;;1.17;;
21987;SDS011;11158;53.404;-1.510;2023-04-25T10:10:29;1.83;;;1.17;;
21987;SDS011;11158;53.404;-1.510;2023-04-25T10:13:19;5.00;;;1.35;;
21987;SDS011;11158;53.404;-1.510;2023-04-25T10:16:04;3.55;;;1.30;;
21987;SDS011;11158;53.404;-1.510;2023-04-25T10:18:48;4.15;;;1.30;;
21987;SDS011;11158;53.404;-1.510;2023-04-25T10:21:34;2.58;;;1.10;;
21987;SDS011;11158;53.404;-1.510;2023-04-25T10:24:24;2.65;;;1.30;;
21987;SDS011;11158;53.404;-1.510;2023-04-25T10:27:09;3.83;;;1.27;;
21987;SDS011;11158;53.404;-1.510;2023-04-25T10:30:02;2.75;;;1.17;;
21987;SDS011;11158;53.404;-1.510;2023-04-25T10:32:54;1.63;;;1.10;;
21987;SDS011;11158;53.404;-1.510;2023-04-25T10:35:39;5.53;;;1.25;;
21987;SDS011;11158;53.404;-1.510;2023-04-25T10:38:24;2.33;;;1.13;;
21987;SDS011;11158;53.404;-1.510;2023-04-25T10:41:10;5.07;;;1.30;;
21987;SDS011;11158;53.404;-1.510;2023-04-25T10:43:59;5.30;;;1.40;;
21987;SDS011;11158;53.404;-1.510;2023-04-25T10:46:45;3.85;;;1.20;;
21987;SDS011;11158;53.404;-1.510;2023-04-25T10:49:33;4.55;;;1.65;;
21987;SDS011;11158;53.404;-1.510;2023-04-25T10:52:25;2.75;;;1.30;;
21987;SDS011;11158;53.404;-1.510;2023-04-25T10:55:12;2.95;;;1.30;;
21987;SDS011;11158;53.404;-1.510;2023-04-25T10:57:56;4.15;;;1.50;;
21987;SDS011;11158;53.404;-1.510;2023-04-25T11:00:41;2.72;;;1.20;;
21987;SDS011;11158;53.404;-1.510;2023-04-25T11:03:24;4.43;;;1.40;;
21987;SDS011;11158;53.404;-1.510;2023-04-25T11:06:51;4.47;;;1.83;;
21987;SDS011;11158;53.404;-1.510;2023-04-25T11:09:40;7.25;;;1.50;;
21987;SDS011;11158;53.404;-1.510;2023-04-25T11:12:25;3.65;;;1.77;;
21987;SDS011;11158;53.404;-1.510;2023-04-25T11:15:09;6.07;;;2.00;;
21987;SDS011;11158;53.404;-1.510;2023-04-25T11:17:53;5.07;;;1.77;;
21987;SDS011;11158;53.404;-1.510;2023-04-25T11:20:38;2.47;;;1.60;;
21987;SDS011;11158;53.404;-1.510;2023-04-25T11:23:22;3.90;;;2.22;;
21987;SDS011;11158;53.404;-1.510;2023-04-25T11:26:06;3.42;;;1.48;;
21987;SDS011;11158;53.404;-1.510;2023-04-25T11:28:50;2.88;;;1.40;;
21987;SDS011;11158;53.404;-1.510;2023-04-25T11:31:34;4.10;;;1.58;;
21987;SDS011;11158;53.404;-1.510;2023-04-25T11:34:18;3.70;;;1.60;;
21987;SDS011;11158;53.404;-1.510;2023-04-25T11:37:03;3.55;;;1.35;;
21987;SDS011;11158;53.404;-1.510;2023-04-25T11:39:49;4.63;;;1.65;;
21987;SDS011;11158;53.404;-1.510;2023-04-25T11:42:33;7.07;;;1.60;;
21987;SDS011;11158;53.404;-1.510;2023-04-25T11:45:17;3.15;;;1.50;;
21987;SDS011;11158;53.404;-1.510;2023-04-25T11:48:02;2.95;;;1.73;;
21987;SDS011;11158;53.404;-1.510;2023-04-25T11:50:47;3.78;;;1.73;;
21987;SDS011;11158;53.404;-1.510;2023-04-25T11:53:31;3.67;;;1.50;;
21987;SDS011;11158;53.404;-1.510;2023-04-25T11:56:15;3.80;;;1.27;;
21987;SDS011;11158;53.404;-1.510;2023-04-25T11:59:00;4.07;;;1.70;;
21987;SDS011;11158;53.404;-1.510;2023-04-25T12:01:49;4.45;;;1.50;;
21987;SDS011;11158;53.404;-1.510;2023-04-25T12:04:33;2.67;;;1.65;;
21987;SDS011;11158;53.404;-1.510;2023-04-25T12:07:18;4.07;;;1.63;;
21987;SDS011;11158;53.404;-1.510;2023-04-25T12:10:09;4.45;;;1.42;;
21987;SDS011;11158;53.404;-1.510;2023-04-25T12:12:55;4.35;;;1.70;;
21987;SDS011;11158;53.404;-1.510;2023-04-25T12:15:40;4.95;;;2.00;;
21987;SDS011;11158;53.404;-1.510;2023-04-25T12:18:24;3.38;;;1.67;;
21987;SDS011;11158;53.404;-1.510;2023-04-25T12:21:12;1.60;;;1.40;;
21987;SDS011;11158;53.404;-1.510;2023-04-25T12:23:56;2.67;;;2.08;;
21987;SDS011;11158;53.404;-1.510;2023-04-25T12:29:34;4.45;;;2.15;;
21987;SDS011;11158;53.404;-1.510;2023-04-25T12:32:19;7.07;;;2.03;;
21987;SDS011;11158;53.404;-1.510;2023-04-25T12:35:03;7.20;;;2.50;;
21987;SDS011;11158;53.404;-1.510;2023-04-25T12:37:49;1.83;;;1.63;;
21987;SDS011;11158;53.404;-1.510;2023-04-25T12:40:33;3.70;;;1.80;;
21987;SDS011;11158;53.404;-1.510;2023-04-25T12:43:17;3.45;;;1.70;;
21987;SDS011;11158;53.404;-1.510;2023-04-25T12:46:01;5.03;;;1.95;;
21987;SDS011;11158;53.404;-1.510;2023-04-25T12:48:45;3.08;;;1.55;;
21987;SDS011;11158;53.404;-1.510;2023-04-25T12:51:29;4.03;;;1.75;;
21987;SDS011;11158;53.404;-1.510;2023-04-25T12:54:16;4.15;;;1.75;;
21987;SDS011;11158;53.404;-1.510;2023-04-25T12:57:00;3.22;;;1.70;;
21987;SDS011;11158;53.404;-1.510;2023-04-25T12:59:46;2.65;;;1.40;;
21987;SDS011;11158;53.404;-1.510;2023-04-25T13:02:30;6.72;;;1.88;;
21987;SDS011;11158;53.404;-1.510;2023-04-25T13:05:14;4.18;;;1.90;;
21987;SDS011;11158;53.404;-1.510;2023-04-25T13:07:59;3.65;;;1.40;;
21987;SDS011;11158;53.404;-1.510;2023-04-25T13:10:43;2.53;;;1.45;;
21987;SDS011;11158;53.404;-1.510;2023-04-25T13:13:27;3.75;;;1.55;;
21987;SDS011;11158;53.404;-1.510;2023-04-25T13:16:12;5.68;;;1.75;;
21987;SDS011;11158;53.404;-1.510;2023-04-25T13:18:57;4.03;;;2.40;;
21987;SDS011;11158;53.404;-1.510;2023-04-25T13:21:41;4.47;;;1.95;;
21987;SDS011;11158;53.404;-1.510;2023-04-25T13:24:26;3.38;;;1.67;;
21987;SDS011;11158;53.404;-1.510;2023-04-25T13:27:10;3.47;;;1.35;;
21987;SDS011;11158;53.404;-1.510;2023-04-25T13:29:54;2.40;;;1.25;;
21987;SDS011;11158;53.404;-1.510;2023-04-25T13:32:38;4.13;;;1.38;;
21987;SDS011;11158;53.404;-1.510;2023-04-25T13:35:22;6.40;;;1.60;;
21987;SDS011;11158;53.404;-1.510;2023-04-25T13:38:06;3.10;;;1.45;;
21987;SDS011;11158;53.404;-1.510;2023-04-25T13:40:50;2.75;;;1.45;;
21987;SDS011;11158;53.404;-1.510;2023-04-25T13:43:38;4.00;;;1.45;;
21987;SDS011;11158;53.404;-1.510;2023-04-25T13:46:22;4.03;;;1.58;;
21987;SDS011;11158;53.404;-1.510;2023-04-25T13:49:06;4.18;;;1.23;;
21987;SDS011;11158;53.404;-1.510;2023-04-25T13:51:50;6.00;;;1.25;;
21987;SDS011;11158;53.404;-1.510;2023-04-25T13:54:34;4.32;;;1.60;;
21987;SDS011;11158;53.404;-1.510;2023-04-25T13:57:18;5.65;;;1.40;;
21987;SDS011;11158;53.404;-1.510;2023-04-25T14:00:04;2.28;;;1.80;;
21987;SDS011;11158;53.404;-1.510;2023-04-25T14:02:52;4.45;;;2.03;;
21987;SDS011;11158;53.404;-1.510;2023-04-25T14:05:37;7.28;;;1.80;;
21987;SDS011;11158;53.404;-1.510;2023-04-25T14:08:21;3.65;;;1.92;;
21987;SDS011;11158;53.404;-1.510;2023-04-25T14:11:06;5.65;;;1.80;;
21987;SDS011;11158;53.404;-1.510;2023-04-25T14:13:50;3.63;;;1.55;;
21987;SDS011;11158;53.404;-1.510;2023-04-25T14:16:34;3.60;;;1.60;;
21987;SDS011;11158;53.404;-1.510;2023-04-25T14:19:19;5.90;;;1.98;;
21987;SDS011;11158;53.404;-1.510;2023-04-25T14:22:04;2.22;;;1.42;;
21987;SDS011;11158;53.404;-1.510;2023-04-25T14:24:48;3.95;;;1.63;;
21987;SDS011;11158;53.404;-1.510;2023-04-25T14:27:32;3.72;;;1.20;;
21987;SDS011;11158;53.404;-1.510;2023-04-25T14:30:17;3.80;;;1.60;;
21987;SDS011;11158;53.404;-1.510;2023-04-25T14:33:02;3.20;;;1.40;;
21987;SDS011;11158;53.404;-1.510;2023-04-25T14:35:46;2.97;;;1.48;;
21987;SDS011;11158;53.404;-1.510;2023-04-25T14:38:30;3.53;;;1.48;;
21987;SDS011;11158;53.404;-1.510;2023-04-25T14:41:15;5.75;;;1.40;;
21987;SDS011;11158;53.404;-1.510;2023-04-25T14:43:59;3.33;;;1.17;;
21987;SDS011;11158;53.404;-1.510;2023-04-25T14:46:43;4.68;;;1.50;;
21987;SDS011;11158;53.404;-1.510;2023-04-25T14:49:28;2.00;;;1.27;;
21987;SDS011;11158;53.404;-1.510;2023-04-25T14:52:13;2.88;;;1.52;;
21987;SDS011;11158;53.404;-1.510;2023-04-25T14:54:57;4.80;;;1.23;;
21987;SDS011;11158;53.404;-1.510;2023-04-25T14:57:43;3.95;;;1.20;;
21987;SDS011;11158;53.404;-1.510;2023-04-25T15:00:27;1.75;;;1.10;;
21987;SDS011;11158;53.404;-1.510;2023-04-25T15:03:11;4.10;;;1.40;;
21987;SDS011;11158;53.404;-1.510;2023-04-25T15:05:56;2.00;;;1.25;;
21987;SDS011;11158;53.404;-1.510;2023-04-25T15:08:40;3.95;;;1.40;;
21987;SDS011;11158;53.404;-1.510;2023-04-25T15:11:25;3.38;;;1.30;;
21987;SDS011;11158;53.404;-1.510;2023-04-25T15:14:08;3.08;;;1.27;;
21987;SDS011;11158;53.404;-1.510;2023-04-25T15:16:54;3.03;;;1.63;;
21987;SDS011;11158;53.404;-1.510;2023-04-25T15:19:37;2.33;;;1.27;;
21987;SDS011;11158;53.404;-1.510;2023-04-25T15:22:22;2.38;;;1.33;;
21987;SDS011;11158;53.404;-1.510;2023-04-25T15:25:06;3.47;;;1.48;;
21987;SDS011;11158;53.404;-1.510;2023-04-25T15:27:51;5.22;;;1.05;;
21987;SDS011;11158;53.404;-1.510;2023-04-25T15:30:38;5.47;;;1.30;;
21987;SDS011;11158;53.404;-1.510;2023-04-25T15:33:22;4.40;;;1.42;;
21987;SDS011;11158;53.404;-1.510;2023-04-25T15:36:06;3.13;;;1.40;;
21987;SDS011;11158;53.404;-1.510;2023-04-25T15:38:51;6.47;;;1.52;;
21987;SDS011;11158;53.404;-1.510;2023-04-25T15:41:36;4.70;;;1.42;;
21987;SDS011;11158;53.404;-1.510;2023-04-25T15:44:20;2.95;;;1.38;;
21987;SDS011;11158;53.404;-1.510;2023-04-25T15:47:05;4.28;;;1.50;;
21987;SDS011;11158;53.404;-1.510;2023-04-25T15:49:49;3.10;;;1.20;;
21987;SDS011;11158;53.404;-1.510;2023-04-25T15:52:34;2.33;;;1.40;;
21987;SDS011;11158;53.404;-1.510;2023-04-25T15:55:19;5.25;;;1.48;;
21987;SDS011;11158;53.404;-1.510;2023-04-25T15:58:04;3.25;;;1.35;;
21987;SDS011;11158;53.404;-1.510;2023-04-25T16:00:50;4.28;;;1.40;;
21987;SDS011;11158;53.404;-1.510;2023-04-25T16:03:34;1.95;;;1.20;;
21987;SDS011;11158;53.404;-1.510;2023-04-25T16:06:19;3.00;;;1.20;;
21987;SDS011;11158;53.404;-1.510;2023-04-25T16:09:03;2.70;;;1.08;;
21987;SDS011;11158;53.404;-1.510;2023-04-25T16:11:47;2.45;;;1.10;;
21987;SDS011;11158;53.404;-1.510;2023-04-25T16:14:33;2.03;;;1.10;;
21987;SDS011;11158;53.404;-1.510;2023-04-25T16:17:17;2.47;;;1.17;;
21987;SDS011;11158;53.404;-1.510;2023-04-25T16:20:01;3.67;;;1.25;;